TimeAFT,TemperatureF,Dew PointF,Humidity,Sea Level PressureIn,VisibilityMPH,Wind Direction,Wind SpeedMPH,Gust SpeedMPH,PrecipitationIn,Events,Conditions,WindDirDegrees,DateUTC
12:20 AM,42.8,39.2,87,30.24,3.7,Variable,2.3,-,N/A,,Mostly Cloudy,0,2013-11-23 19:50:00
1:20 AM,41.0,39.2,93,30.21,3.7,Variable,1.2,-,N/A,Rain,Light Rain,0,2013-11-23 20:50:00
2:20 AM,41.0,39.2,93,30.21,4.3,WSW,3.5,-,N/A,,Mostly Cloudy,240,2013-11-23 21:50:00
3:20 AM,41.0,39.2,93,30.21,5.0,NW,2.3,-,N/A,,Mostly Cloudy,320,2013-11-23 22:50:00
4:20 AM,41.0,39.2,93,30.21,4.3,Variable,1.2,-,N/A,,Mostly Cloudy,0,2013-11-23 23:50:00
5:20 AM,39.2,39.2,100,30.24,3.7,West,2.3,-,N/A,,Mostly Cloudy,280,2013-11-24 00:50:00
6:20 AM,39.2,39.2,100,30.24,4.3,NE,3.5,-,N/A,,Mostly Cloudy,40,2013-11-24 01:50:00
7:20 AM,39.2,37.4,93,30.27,5.0,SSW,2.3,-,N/A,,Scattered Clouds,200,2013-11-24 02:50:00
7:55 AM,42.8,41.0,93,30.27,2.5,NW,2.3,-,N/A,,Scattered Clouds,320,2013-11-24 03:25:00
8:20 AM,46.4,39.2,76,30.30,2.2,Variable,1.2,-,N/A,,Haze,0,2013-11-24 03:50:00
9:20 AM,46.4,39.2,76,30.30,3.1,ESE,3.5,-,N/A,,Haze,110,2013-11-24 04:50:00
9:52 AM,48.2,39.2,71,30.30,4.3,South,4.6,-,N/A,,Mostly Cloudy,180,2013-11-24 05:22:00
10:20 AM,50.0,39.2,66,30.30,5.6,Variable,3.5,-,N/A,,Mostly Cloudy,0,2013-11-24 05:50:00
11:20 AM,51.8,37.4,58,30.30,6.2,WSW,5.8,-,N/A,,Mostly Cloudy,240,2013-11-24 06:50:00
12:20 PM,51.8,37.4,58,30.27,6.2,WSW,4.6,-,N/A,,Mostly Cloudy,240,2013-11-24 07:50:00
1:20 PM,51.8,37.4,58,30.24,6.2,South,6.9,-,N/A,,Mostly Cloudy,170,2013-11-24 08:50:00
2:20 PM,51.8,37.4,58,30.24,6.2,SSE,4.6,-,N/A,,Mostly Cloudy,150,2013-11-24 09:50:00
3:20 PM,51.8,37.4,58,30.24,6.2,Variable,2.3,-,N/A,,Mostly Cloudy,0,2013-11-24 10:50:00
4:20 PM,50.0,37.4,62,30.24,5.6,SE,2.3,-,N/A,,Mostly Cloudy,130,2013-11-24 11:50:00
5:20 PM,50.0,37.4,62,30.21,5.6,SE,2.3,-,N/A,,Mostly Cloudy,130,2013-11-24 12:50:00
6:20 PM,50.0,39.2,66,30.24,3.7,South,2.3,-,N/A,,Mostly Cloudy,190,2013-11-24 13:50:00
7:20 PM,46.4,39.2,76,30.24,3.1,East,2.3,-,N/A,,Haze,90,2013-11-24 14:50:00
8:20 PM,46.4,37.4,71,30.24,3.1,NNW,2.3,-,N/A,,Haze,340,2013-11-24 15:50:00
9:20 PM,44.6,37.4,76,30.24,3.1,Variable,2.3,-,N/A,,Scattered Clouds,0,2013-11-24 16:50:00
10:20 PM,44.6,39.2,81,30.24,3.1,WSW,2.3,-,N/A,,Scattered Clouds,250,2013-11-24 17:50:00
11:20 PM,44.6,37.4,76,30.21,3.1,NNW,2.3,-,N/A,,Mostly Cloudy,340,2013-11-24 18:50:00